Terminal Aerodrome Forecast
Issued by NWS Brownsville, TX

Home | Current Version | Previous Version | Text Only | Print | Product List | Glossary On
Versions: 1 2 3 4 5 6 7 8 9 10 11 12 13 14
000
FTUS44 KBRO 292332
TAFBRO
TAF
KBRO 292332Z 3000/3024 11012G17KT P6SM FEW040
     FM300300 13003KT P6SM FEW025
     FM301500 16010KT P6SM SCT040 PROB30 3015/3018 -SHRA SCT030
      BKN040
     FM301800 12012KT P6SM SCT060=

USA.gov is the U.S. government's official web portal to all federal, state and local government web resources and services.